Portada
METAR-TAF:

METAR-TAF

Aeropuertos :

Aeropuerto Internacional de Dakar-Yoff/Léopold Sédar Senghor

Dakar, Senegal

latitud: 14-44N, longitud: 017-30W, altitud: 27 m

Observación

El informe se hizo hace 17 minutos, a las 22:00 UTC
Viento 10 kt del noroeste
Temperatura 23°C
Humedad 89%
Presión 1014 hPa
Visibilidad: 8000 m
Cielo nuboso a una altura de 1500 ft

METAR: GOOY 192200Z 32010KT 8000 BKN015 23/21 Q1014

Hora: 22:17 (22:17 UTC)

Pronóstico

El informe se hizo hace 4 horas y 47 minutos, a las 17:30 UTC
Pronóstico válido del 19 a las 18 UTC al 20 a las 24 UTC
Viento 10 kt del norte-noroeste
Visibilidad 10 km o más
Nubes dispersas a una altura de 1200 ft
Temporalmente
del 20 a las 02 UTC al 20 a las 08 UTC
Cielo nuboso a una altura de 800 ft

TAF: GOOY 191730Z 1918/2024 34010KT 9999 SCT012 TEMPO 2002/2008 BKN008

Observaciones y pronósticos meteorológicos de más de 4000 aeropuertos (mensajes METAR y TAF).

Los puntos amarillos y rojos representan las estaciones disponibles.

Ponga el ratón en el punto deseado para ver el nombre de la estación.

Haga clic para ver las observaciones y los pronósticos meteorológicos.

Para cambiar el mapa : haga clic en los botones verdes con una cruz de color negro para hacer un zoom, en el botón verde con un guión para alejar o en las flechas verdes para mapas adyacentes.


METAR-TAF: